Time;durP1;ratioP1;P1;durP2;ratioP2;P2;SDS_P1;SDS_P2;PMS_P1;PMS_P2;Temp;Humidity;BMP_temperature;BMP_pressure;BME280_temperature;BME280_humidity;BME280_pressure;Samples;Min_cycle;Max_cycle;Signal;HPM_P1;HPM_P2
2023/06/17 00:01:34;;;;;;;;;;;17.90;99.90;;;;;;5036577;28;19929;-68
2023/06/17 00:04:02;;;;;;;;;;;17.90;99.90;;;;;;5036516;28;19932;-67
2023/06/17 00:06:28;;;;;;;;;;;17.90;99.90;;;;;;5035965;28;19926;-67
2023/06/17 00:08:55;;;;;;;;;;;17.80;99.90;;;;;;5036841;28;19924;-67
2023/06/17 00:11:22;;;;;;;;;;;17.60;99.90;;;;;;5056065;28;20020;-67
2023/06/17 00:13:49;;;;;;;;;;;17.50;99.90;;;;;;5036403;28;19959;-67
2023/06/17 00:16:18;;;;;;;;;;;17.50;99.90;;;;;;5036587;28;19925;-66
2023/06/17 00:18:47;;;;;;;;;;;17.50;99.90;;;;;;5034476;28;20387;-67
2023/06/17 00:21:14;;;;;;;;;;;17.50;99.90;;;;;;5036354;28;20403;-67
2023/06/17 00:23:41;;;;;;;;;;;17.40;99.90;;;;;;5035576;28;19975;-70
2023/06/17 00:26:07;;;;;;;;;;;17.40;99.90;;;;;;5049849;28;19925;-70
2023/06/17 00:28:35;;;;;;;;;;;17.40;99.90;;;;;;5052306;28;19932;-70
2023/06/17 00:31:02;;;;;;;;;;;17.40;99.90;;;;;;5036351;28;19925;-70
2023/06/17 00:33:30;;;;;;;;;;;17.40;99.90;;;;;;5053002;28;19925;-68
2023/06/17 00:35:57;;;;;;;;;;;17.20;99.90;;;;;;5052622;28;19928;-67
2023/06/17 00:38:23;;;;;;;;;;;17.10;99.90;;;;;;5052591;28;19924;-67
2023/06/17 00:40:50;;;;;;;;;;;17.00;99.90;;;;;;5035840;28;19925;-67
2023/06/17 00:43:17;;;;;;;;;;;16.90;99.90;;;;;;5035996;28;20391;-67
2023/06/17 00:45:44;;;;;;;;;;;16.70;99.90;;;;;;5052281;28;19935;-67
2023/06/17 00:48:11;;;;;;;;;;;16.40;99.90;;;;;;5052742;28;19932;-67
2023/06/17 00:50:40;;;;;;;;;;;16.30;99.90;;;;;;5049826;28;20020;-68
2023/06/17 00:53:08;;;;;;;;;;;16.30;99.90;;;;;;5035856;28;19924;-67
2023/06/17 00:55:34;;;;;;;;;;;16.30;99.90;;;;;;5035788;28;19935;-67
2023/06/17 00:58:02;;;;;;;;;;;16.20;99.90;;;;;;5032231;28;19925;-67
2023/06/17 01:00:29;;;;;;;;;;;16.20;99.90;;;;;;5038882;28;19925;-67
2023/06/17 01:02:56;;;;;;;;;;;16.20;99.90;;;;;;5051866;28;20011;-67
2023/06/17 01:05:23;;;;;;;;;;;16.20;99.90;;;;;;5035206;28;20403;-67
2023/06/17 01:07:59;;;;;;;;;;;16.20;99.90;;;;;;5035153;28;19925;-67
2023/06/17 01:10:31;;;;;;;;;;;16.20;99.90;;;;;;5035699;28;19925;-67
2023/06/17 01:12:58;;;;;;;;;;;16.10;99.90;;;;;;5035102;28;20346;-67
2023/06/17 01:15:25;;;;;;;;;;;16.10;99.90;;;;;;5038415;28;19986;-67
2023/06/17 01:17:54;;;;;;;;;;;16.10;99.90;;;;;;5051501;28;20440;-67
2023/06/17 01:20:21;;;;;;;;;;;16.00;99.90;;;;;;5035529;28;19925;-67
2023/06/17 01:22:52;;;;;;;;;;;16.00;99.90;;;;;;5053223;28;19964;-67
2023/06/17 01:25:20;;;;;;;;;;;16.00;99.90;;;;;;5035171;28;19925;-67
2023/06/17 01:27:49;;;;;;;;;;;15.90;99.90;;;;;;5051508;28;19929;-67
2023/06/17 01:30:16;;;;;;;;;;;15.90;99.90;;;;;;5051618;28;19940;-67
2023/06/17 01:32:43;;;;;;;;;;;15.90;99.90;;;;;;5051316;28;20007;-67
2023/06/17 01:35:13;;;;;;;;;;;15.80;99.90;;;;;;5035136;28;19929;-68
2023/06/17 01:37:42;;;;;;;;;;;15.80;99.90;;;;;;5049077;28;19925;-67
2023/06/17 01:40:11;;;;;;;;;;;15.70;99.90;;;;;;5035047;28;19929;-67
2023/06/17 01:42:42;;;;;;;;;;;15.70;99.90;;;;;;5048331;28;19924;-66
2023/06/17 01:45:09;;;;;;;;;;;15.60;99.90;;;;;;5035125;28;20034;-67
2023/06/17 01:47:36;;;;;;;;;;;15.60;99.90;;;;;;5032878;28;19936;-67
2023/06/17 01:50:04;;;;;;;;;;;15.60;99.90;;;;;;5034563;28;19925;-67
2023/06/17 01:52:31;;;;;;;;;;;15.50;99.90;;;;;;5051078;28;19928;-67
2023/06/17 01:54:58;;;;;;;;;;;15.50;99.90;;;;;;5034741;28;19925;-67
2023/06/17 01:57:26;;;;;;;;;;;15.40;99.90;;;;;;5037520;28;19929;-67
2023/06/17 01:59:56;;;;;;;;;;;15.40;99.90;;;;;;5051226;28;19964;-67
2023/06/17 02:02:23;;;;;;;;;;;15.30;99.90;;;;;;5049092;28;20438;-67
2023/06/17 02:04:50;;;;;;;;;;;15.30;99.90;;;;;;5034375;28;20447;-67
2023/06/17 02:07:25;;;;;;;;;;;15.30;99.90;;;;;;5034566;28;20292;-67
2023/06/17 02:09:51;;;;;;;;;;;15.20;99.90;;;;;;5034393;28;19925;-67
2023/06/17 02:12:18;;;;;;;;;;;15.20;99.90;;;;;;5033561;28;19925;-66
2023/06/17 02:14:45;;;;;;;;;;;15.20;99.90;;;;;;5048005;28;19982;-67
2023/06/17 02:17:14;;;;;;;;;;;15.20;99.90;;;;;;5033840;28;19924;-67
2023/06/17 02:19:41;;;;;;;;;;;15.10;99.90;;;;;;5033752;28;20054;-67
2023/06/17 02:22:08;;;;;;;;;;;15.10;99.90;;;;;;5034338;28;19925;-67
2023/06/17 02:24:35;;;;;;;;;;;15.00;99.90;;;;;;5034264;28;19925;-67
2023/06/17 02:27:05;;;;;;;;;;;15.00;99.90;;;;;;5045357;28;19925;-67
2023/06/17 02:29:32;;;;;;;;;;;15.00;99.90;;;;;;5033376;28;19948;-67
2023/06/17 02:31:58;;;;;;;;;;;15.00;99.90;;;;;;5034344;28;19925;-67
2023/06/17 02:34:27;;;;;;;;;;;14.90;99.90;;;;;;5033841;28;19924;-67
2023/06/17 02:36:56;;;;;;;;;;;14.90;99.90;;;;;;5049559;28;21326;-67
2023/06/17 02:39:23;;;;;;;;;;;14.90;99.90;;;;;;5050022;28;20024;-67
2023/06/17 02:41:50;;;;;;;;;;;14.80;99.90;;;;;;5050508;28;19961;-67
2023/06/17 02:44:17;;;;;;;;;;;14.80;99.90;;;;;;5033790;28;19932;-67
2023/06/17 02:46:44;;;;;;;;;;;14.80;99.90;;;;;;5033459;28;19925;-67
2023/06/17 02:49:13;;;;;;;;;;;14.80;99.90;;;;;;5033932;28;19931;-67
2023/06/17 02:51:42;;;;;;;;;;;14.70;99.90;;;;;;5030295;28;19952;-67
2023/06/17 02:54:10;;;;;;;;;;;14.70;99.90;;;;;;5033641;28;20028;-67
2023/06/17 02:56:37;;;;;;;;;;;14.60;99.90;;;;;;5030062;28;20513;-67
2023/06/17 02:59:04;;;;;;;;;;;14.60;99.90;;;;;;5050460;28;19925;-67
2023/06/17 03:01:31;;;;;;;;;;;14.60;99.90;;;;;;5037531;28;19925;-67
2023/06/17 03:04:01;;;;;;;;;;;14.50;99.90;;;;;;5050055;28;19925;-67
2023/06/17 03:06:33;;;;;;;;;;;14.50;99.90;;;;;;5049852;28;19929;-67
2023/06/17 03:09:03;;;;;;;;;;;14.40;99.90;;;;;;5053493;28;19931;-67
2023/06/17 03:11:30;;;;;;;;;;;14.40;99.90;;;;;;5033475;28;19964;-67
2023/06/17 03:14:01;;;;;;;;;;;14.30;99.90;;;;;;5033603;28;20402;-67
2023/06/17 03:16:33;;;;;;;;;;;14.30;99.90;;;;;;5032098;28;19925;-67
2023/06/17 03:19:00;;;;;;;;;;;14.30;99.90;;;;;;5049958;28;19925;-70
2023/06/17 03:21:30;;;;;;;;;;;14.30;99.90;;;;;;5033243;28;19947;-70
2023/06/17 03:23:57;;;;;;;;;;;14.30;99.90;;;;;;5048934;28;19929;-69
2023/06/17 03:26:26;;;;;;;;;;;14.30;99.90;;;;;;5034502;28;19975;-69
2023/06/17 03:28:56;;;;;;;;;;;14.20;99.90;;;;;;5053854;28;19925;-69
2023/06/17 03:31:23;;;;;;;;;;;14.20;99.90;;;;;;5037768;28;20340;-67
2023/06/17 03:33:51;;;;;;;;;;;14.20;99.90;;;;;;5036923;28;19940;-67
2023/06/17 03:36:19;;;;;;;;;;;14.20;99.90;;;;;;5036959;28;19925;-67
2023/06/17 03:38:46;;;;;;;;;;;14.20;99.90;;;;;;5052562;28;19939;-67
2023/06/17 03:41:14;;;;;;;;;;;14.20;99.90;;;;;;5037147;28;19953;-67
2023/06/17 03:43:43;;;;;;;;;;;14.10;99.90;;;;;;5059386;28;19925;-67
2023/06/17 03:46:09;;;;;;;;;;;14.10;99.90;;;;;;5057830;23;19932;-64
2023/06/17 03:48:36;;;;;;;;;;;14.10;99.90;;;;;;5048089;28;19933;-68
2023/06/17 03:51:03;;;;;;;;;;;14.10;99.90;;;;;;5026083;28;19929;-67
2023/06/17 03:53:30;;;;;;;;;;;14.10;99.90;;;;;;5026180;28;19959;-67
2023/06/17 03:55:58;;;;;;;;;;;14.10;99.90;;;;;;5014764;28;19956;-67
2023/06/17 03:58:25;;;;;;;;;;;14.10;99.90;;;;;;5014441;28;19936;-68
2023/06/17 04:00:53;;;;;;;;;;;14.10;99.90;;;;;;5023046;28;19929;-68
2023/06/17 04:03:23;;;;;;;;;;;14.10;99.90;;;;;;5004921;28;20349;-67
2023/06/17 04:05:50;;;;;;;;;;;14.10;99.90;;;;;;5030204;28;20289;-67
2023/06/17 04:08:18;;;;;;;;;;;14.20;99.90;;;;;;5027286;28;19933;-67
2023/06/17 04:10:44;;;;;;;;;;;14.20;99.90;;;;;;5002097;28;20123;-68
2023/06/17 04:13:11;;;;;;;;;;;14.30;99.90;;;;;;5007821;28;19932;-68
2023/06/17 04:15:38;;;;;;;;;;;14.30;99.90;;;;;;5025387;28;19961;-68
2023/06/17 04:18:06;;;;;;;;;;;14.40;99.90;;;;;;5006955;28;19952;-67
2023/06/17 04:20:34;;;;;;;;;;;14.40;99.90;;;;;;5010733;28;19929;-67
2023/06/17 04:23:01;;;;;;;;;;;14.40;99.90;;;;;;5031313;28;19964;-67
2023/06/17 04:25:32;;;;;;;;;;;14.50;99.90;;;;;;5009190;28;20309;-68
2023/06/17 04:28:01;;;;;;;;;;;14.50;99.90;;;;;;5028612;28;19932;-67
2023/06/17 04:30:30;;;;;;;;;;;14.60;99.90;;;;;;5009277;28;19972;-67
2023/06/17 04:32:59;;;;;;;;;;;14.60;99.90;;;;;;5024992;28;20020;-68
2023/06/17 04:35:28;;;;;;;;;;;14.60;99.90;;;;;;5032189;28;19926;-68
2023/06/17 04:37:56;;;;;;;;;;;14.60;99.90;;;;;;5016542;28;19932;-68
2023/06/17 04:40:24;;;;;;;;;;;14.60;99.90;;;;;;5023788;28;19972;-67
2023/06/17 04:42:52;;;;;;;;;;;14.70;99.90;;;;;;5009846;28;19971;-67
2023/06/17 04:45:20;;;;;;;;;;;14.80;99.90;;;;;;5019712;28;19925;-66
2023/06/17 04:47:50;;;;;;;;;;;14.80;99.90;;;;;;5006710;28;19971;-67
2023/06/17 04:50:17;;;;;;;;;;;14.90;99.90;;;;;;5025584;28;19925;-67
2023/06/17 04:52:47;;;;;;;;;;;15.00;99.90;;;;;;5012950;28;19935;-68
2023/06/17 04:55:18;;;;;;;;;;;15.10;99.90;;;;;;5031047;28;19925;-67
2023/06/17 04:57:45;;;;;;;;;;;15.20;99.90;;;;;;5004096;28;20024;-67
2023/06/17 05:00:14;;;;;;;;;;;15.20;99.90;;;;;;5014546;28;19964;-67
2023/06/17 05:02:42;;;;;;;;;;;15.30;99.90;;;;;;5011178;28;19929;-66
2023/06/17 05:05:09;;;;;;;;;;;15.40;99.90;;;;;;5013089;28;19925;-66
2023/06/17 05:07:36;;;;;;;;;;;15.50;99.90;;;;;;5039943;28;19928;-66
2023/06/17 05:10:06;;;;;;;;;;;15.50;99.90;;;;;;5008488;28;19925;-66
2023/06/17 05:12:35;;;;;;;;;;;15.60;99.90;;;;;;5031836;28;19925;-65
2023/06/17 05:15:02;;;;;;;;;;;15.70;99.90;;;;;;5011351;28;19941;-65
2023/06/17 05:17:28;;;;;;;;;;;15.70;99.90;;;;;;5031466;28;19925;-67
2023/06/17 05:19:56;;;;;;;;;;;15.80;99.90;;;;;;5033671;28;19929;-66
2023/06/17 05:22:24;;;;;;;;;;;15.90;99.90;;;;;;5003695;28;19925;-67
2023/06/17 05:24:51;;;;;;;;;;;16.00;99.90;;;;;;5007243;28;19925;-66
2023/06/17 05:27:19;;;;;;;;;;;16.10;99.90;;;;;;5023767;28;19926;-65
2023/06/17 05:29:46;;;;;;;;;;;16.10;99.90;;;;;;5009716;28;19929;-66
2023/06/17 05:32:13;;;;;;;;;;;16.20;99.90;;;;;;5036264;28;19932;-66
2023/06/17 05:34:39;;;;;;;;;;;16.30;99.90;;;;;;5029597;28;19925;-66
2023/06/17 05:37:06;;;;;;;;;;;16.40;99.90;;;;;;5025600;28;19933;-67
2023/06/17 05:39:33;;;;;;;;;;;16.40;99.90;;;;;;5033303;28;20420;-66
2023/06/17 05:42:00;;;;;;;;;;;16.60;99.90;;;;;;5029180;28;19948;-66
2023/06/17 05:44:28;;;;;;;;;;;16.70;99.90;;;;;;5029180;28;20320;-66
2023/06/17 05:46:56;;;;;;;;;;;16.80;99.90;;;;;;5007129;28;19936;-67
2023/06/17 05:49:24;;;;;;;;;;;17.00;99.90;;;;;;5009524;28;19975;-67
2023/06/17 05:51:50;;;;;;;;;;;17.10;99.90;;;;;;5003314;28;19929;-66
2023/06/17 05:54:17;;;;;;;;;;;17.20;99.90;;;;;;5030598;28;20024;-66
2023/06/17 05:56:45;;;;;;;;;;;17.30;99.90;;;;;;5027229;28;19975;-66
2023/06/17 05:59:11;;;;;;;;;;;17.50;99.90;;;;;;5032937;28;19940;-67
2023/06/17 06:01:42;;;;;;;;;;;17.50;99.90;;;;;;5015326;28;19925;-66
2023/06/17 06:04:09;;;;;;;;;;;17.50;99.90;;;;;;5023261;28;19925;-66
2023/06/17 06:06:35;;;;;;;;;;;17.60;99.90;;;;;;5031034;28;19925;-66
2023/06/17 06:09:02;;;;;;;;;;;17.50;99.90;;;;;;5009223;28;19926;-66
2023/06/17 06:11:29;;;;;;;;;;;17.70;99.90;;;;;;5030502;28;19932;-69
2023/06/17 06:13:57;;;;;;;;;;;17.70;99.90;;;;;;5027403;28;19925;-66
2023/06/17 06:16:24;;;;;;;;;;;17.70;99.90;;;;;;5014303;28;19928;-67
2023/06/17 06:18:52;;;;;;;;;;;17.80;99.90;;;;;;5026660;28;19925;-67
2023/06/17 06:21:19;;;;;;;;;;;18.00;99.90;;;;;;5027650;28;19925;-67
2023/06/17 06:23:46;;;;;;;;;;;18.00;99.90;;;;;;5025418;28;20016;-66
2023/06/17 06:26:13;;;;;;;;;;;18.20;99.90;;;;;;5015134;28;19934;-67
2023/06/17 06:28:39;;;;;;;;;;;18.20;99.90;;;;;;5016844;28;20343;-67
2023/06/17 06:31:06;;;;;;;;;;;18.40;99.90;;;;;;5005141;28;19934;-67
2023/06/17 06:33:35;;;;;;;;;;;18.50;99.90;;;;;;5013325;28;19933;-66
2023/06/17 06:36:05;;;;;;;;;;;18.60;99.90;;;;;;5009088;28;19925;-65
2023/06/17 06:38:34;;;;;;;;;;;18.60;99.90;;;;;;5007896;28;19925;-67
2023/06/17 06:41:00;;;;;;;;;;;18.70;99.90;;;;;;5024231;28;19932;-66
2023/06/17 06:43:28;;;;;;;;;;;18.90;99.90;;;;;;5015719;28;19969;-66
2023/06/17 06:45:56;;;;;;;;;;;19.00;99.90;;;;;;5004339;28;19929;-67
2023/06/17 06:48:23;;;;;;;;;;;19.20;99.90;;;;;;5028578;28;20414;-65
2023/06/17 06:50:50;;;;;;;;;;;19.30;99.90;;;;;;5022309;28;19926;-67
2023/06/17 06:53:23;;;;;;;;;;;19.40;99.90;;;;;;5009235;28;19957;-66
2023/06/17 06:55:51;;;;;;;;;;;19.50;99.90;;;;;;5021156;28;19925;-72
2023/06/17 06:58:19;;;;;;;;;;;19.60;99.90;;;;;;5019784;28;19956;-66
2023/06/17 07:00:45;;;;;;;;;;;19.70;99.90;;;;;;5004161;28;19925;-66
2023/06/17 07:03:13;;;;;;;;;;;19.80;99.90;;;;;;5027050;28;19928;-66
2023/06/17 07:05:40;;;;;;;;;;;19.90;99.90;;;;;;5008611;28;20396;-71
2023/06/17 07:08:08;;;;;;;;;;;20.00;99.90;;;;;;5008983;28;20026;-67
2023/06/17 07:10:39;;;;;;;;;;;20.10;99.90;;;;;;5022960;28;20320;-67
2023/06/17 07:13:06;;;;;;;;;;;20.10;99.90;;;;;;5012203;28;20027;-66
2023/06/17 07:15:33;;;;;;;;;;;20.20;99.90;;;;;;5031505;28;19925;-67
2023/06/17 07:18:00;;;;;;;;;;;20.30;99.90;;;;;;5031266;28;19932;-67
2023/06/17 07:20:27;;;;;;;;;;;20.50;99.90;;;;;;5033798;28;19925;-67
2023/06/17 07:22:55;;;;;;;;;;;20.60;99.90;;;;;;5028536;28;19925;-67
2023/06/17 07:25:22;;;;;;;;;;;20.70;99.90;;;;;;5032698;28;19929;-66
2023/06/17 07:27:50;;;;;;;;;;;20.80;99.90;;;;;;5024272;28;19929;-66
2023/06/17 07:30:17;;;;;;;;;;;20.90;99.90;;;;;;5026876;28;19932;-66
2023/06/17 07:32:44;;;;;;;;;;;20.90;99.90;;;;;;5006952;28;19932;-67
2023/06/17 07:35:11;;;;;;;;;;;20.90;99.90;;;;;;5006521;28;19933;-67
2023/06/17 07:37:38;;;;;;;;;;;20.90;99.90;;;;;;5027842;28;19956;-66
2023/06/17 07:40:10;;;;;;;;;;;21.10;99.90;;;;;;5030402;28;19926;-66
2023/06/17 07:42:37;;;;;;;;;;;21.20;99.90;;;;;;5010051;28;19932;-66
2023/06/17 07:45:06;;;;;;;;;;;21.30;99.90;;;;;;5026561;28;19925;-67
2023/06/17 07:47:33;;;;;;;;;;;21.40;99.90;;;;;;5029967;28;19945;-67
2023/06/17 07:50:00;;;;;;;;;;;21.50;99.90;;;;;;5030864;28;19925;-67
2023/06/17 07:52:26;;;;;;;;;;;21.60;99.90;;;;;;5027197;28;19983;-67
2023/06/17 07:54:53;;;;;;;;;;;21.80;99.90;;;;;;5029827;28;19925;-66
2023/06/17 07:57:20;;;;;;;;;;;22.00;99.90;;;;;;5026822;28;19950;-67
2023/06/17 07:59:47;;;;;;;;;;;22.10;99.90;;;;;;5011017;28;19932;-68
2023/06/17 08:02:15;;;;;;;;;;;22.20;99.90;;;;;;5008570;28;19925;-66
2023/06/17 08:04:42;;;;;;;;;;;22.30;99.90;;;;;;5028997;28;19932;-67
2023/06/17 08:07:09;;;;;;;;;;;22.50;99.90;;;;;;5007889;28;19972;-66
2023/06/17 08:09:35;;;;;;;;;;;22.50;99.90;;;;;;5008461;28;20400;-65
2023/06/17 08:12:02;;;;;;;;;;;22.50;99.90;;;;;;5005333;28;20368;-66
2023/06/17 08:14:29;;;;;;;;;;;22.60;99.90;;;;;;5005256;28;19929;-66
2023/06/17 08:16:56;;;;;;;;;;;22.80;99.90;;;;;;5009727;28;19925;-67
2023/06/17 08:19:24;;;;;;;;;;;22.90;99.90;;;;;;5024487;28;19925;-67
2023/06/17 08:21:51;;;;;;;;;;;22.90;99.90;;;;;;5016548;28;19925;-67
2023/06/17 08:24:18;;;;;;;;;;;23.00;99.90;;;;;;5026935;28;19926;-67
2023/06/17 08:26:44;;;;;;;;;;;23.10;99.90;;;;;;5002516;28;19926;-67
2023/06/17 08:29:11;;;;;;;;;;;23.20;99.90;;;;;;5030571;28;19929;-67
2023/06/17 08:31:38;;;;;;;;;;;23.30;99.90;;;;;;5028160;28;19925;-68
2023/06/17 08:34:05;;;;;;;;;;;23.40;99.90;;;;;;5032002;28;19929;-67
2023/06/17 08:36:33;;;;;;;;;;;23.50;99.90;;;;;;5031751;28;19975;-67
2023/06/17 08:39:00;;;;;;;;;;;23.50;99.90;;;;;;5028408;28;19937;-67
2023/06/17 08:41:27;;;;;;;;;;;23.60;99.90;;;;;;5022926;28;19932;-66
2023/06/17 08:43:56;;;;;;;;;;;23.70;99.90;;;;;;5026730;28;19926;-67
2023/06/17 08:46:25;;;;;;;;;;;23.70;99.90;;;;;;5012498;28;19983;-67
2023/06/17 08:48:52;;;;;;;;;;;23.80;99.90;;;;;;5017763;28;19932;-66
2023/06/17 08:51:19;;;;;;;;;;;24.00;99.90;;;;;;5030621;28;20387;-66
2023/06/17 08:53:47;;;;;;;;;;;24.10;99.90;;;;;;5020595;28;19929;-66
2023/06/17 08:56:14;;;;;;;;;;;24.10;99.90;;;;;;5026864;28;19972;-66
2023/06/17 08:58:41;;;;;;;;;;;24.10;99.90;;;;;;5012775;28;19975;-67
2023/06/17 09:01:09;;;;;;;;;;;24.30;99.90;;;;;;5026563;28;20312;-68
2023/06/17 09:03:36;;;;;;;;;;;24.40;99.90;;;;;;5027531;28;19926;-67
2023/06/17 09:06:03;;;;;;;;;;;24.50;99.90;;;;;;5018747;28;19925;-67
2023/06/17 09:08:30;;;;;;;;;;;24.60;99.90;;;;;;5020014;28;19999;-66
2023/06/17 09:11:05;;;;;;;;;;;24.60;99.90;;;;;;5033296;28;19976;-67
2023/06/17 09:13:32;;;;;;;;;;;24.70;99.90;;;;;;5024758;28;19972;-67
2023/06/17 09:15:59;;;;;;;;;;;24.80;99.90;;;;;;5019640;28;19967;-66
2023/06/17 09:18:25;;;;;;;;;;;24.90;99.90;;;;;;5022905;28;19925;-67
2023/06/17 09:20:55;;;;;;;;;;;25.10;99.90;;;;;;5017325;28;19925;-67
2023/06/17 09:23:22;;;;;;;;;;;25.20;99.90;;;;;;5013572;28;19925;-67
2023/06/17 09:25:49;;;;;;;;;;;25.40;99.90;;;;;;5014307;28;19964;-67
2023/06/17 09:28:18;;;;;;;;;;;25.40;99.90;;;;;;5015255;28;19929;-65
2023/06/17 09:30:53;;;;;;;;;;;25.40;99.90;;;;;;5011414;28;19925;-68
2023/06/17 09:33:20;;;;;;;;;;;25.50;99.90;;;;;;5019499;28;20410;-66
2023/06/17 09:35:47;;;;;;;;;;;25.30;99.90;;;;;;5026513;28;19925;-67
2023/06/17 09:38:17;;;;;;;;;;;25.40;99.90;;;;;;5011865;28;19925;-66
2023/06/17 09:40:43;;;;;;;;;;;25.40;99.90;;;;;;5030401;28;20028;-68
2023/06/17 09:43:12;;;;;;;;;;;25.40;99.90;;;;;;5022546;28;19936;-67
2023/06/17 09:45:40;;;;;;;;;;;25.20;99.90;;;;;;5021054;28;19987;-68
2023/06/17 09:48:09;;;;;;;;;;;25.20;99.90;;;;;;5028109;28;19957;-66
2023/06/17 09:50:37;;;;;;;;;;;25.20;99.90;;;;;;5012433;28;19931;-67
2023/06/17 09:53:05;;;;;;;;;;;25.30;99.90;;;;;;5005605;28;19925;-66
2023/06/17 09:55:32;;;;;;;;;;;25.40;99.90;;;;;;5012595;28;19925;-67
2023/06/17 09:58:01;;;;;;;;;;;25.60;99.90;;;;;;5009663;28;19925;-67
2023/06/17 10:00:29;;;;;;;;;;;25.80;99.90;;;;;;5005012;28;19929;-67
2023/06/17 10:02:57;;;;;;;;;;;25.90;99.90;;;;;;5012237;28;19932;-66
2023/06/17 10:05:25;;;;;;;;;;;26.00;99.90;;;;;;5005637;28;19938;-67
2023/06/17 10:07:54;;;;;;;;;;;26.20;99.90;;;;;;5022524;28;19936;-67
2023/06/17 10:10:21;;;;;;;;;;;26.30;99.90;;;;;;5022382;28;20335;-67
2023/06/17 10:12:48;;;;;;;;;;;26.50;99.90;;;;;;5023728;28;19925;-66
2023/06/17 10:15:17;;;;;;;;;;;26.60;99.90;;;;;;5025090;28;19940;-66
2023/06/17 10:17:45;;;;;;;;;;;26.60;99.90;;;;;;4999939;28;20367;-66
2023/06/17 10:20:14;;;;;;;;;;;26.50;99.90;;;;;;5009250;28;19929;-67
2023/06/17 10:22:41;;;;;;;;;;;26.40;99.90;;;;;;5015486;28;19929;-65
2023/06/17 10:25:10;;;;;;;;;;;26.10;99.90;;;;;;5020808;28;19925;-67
2023/06/17 10:27:37;;;;;;;;;;;26.10;99.90;;;;;;5031914;28;19945;-68
2023/06/17 10:30:23;;;;;;;;;;;26.10;99.90;;;;;;5016494;28;19932;-67
2023/06/17 10:32:52;;;;;;;;;;;26.40;99.90;;;;;;5026164;28;20350;-67
2023/06/17 10:35:20;;;;;;;;;;;26.50;99.90;;;;;;5024646;28;19991;-66
2023/06/17 10:37:48;;;;;;;;;;;26.50;99.90;;;;;;5009860;28;19984;-68
2023/06/17 10:40:22;;;;;;;;;;;26.80;99.90;;;;;;5013444;28;19929;-68
2023/06/17 10:42:57;;;;;;;;;;;27.00;99.90;;;;;;5014934;28;19929;-67
2023/06/17 10:45:23;;;;;;;;;;;27.00;99.90;;;;;;5005459;28;20353;-67
2023/06/17 10:47:50;;;;;;;;;;;27.00;99.90;;;;;;5031648;28;19929;-67
2023/06/17 10:50:22;;;;;;;;;;;27.00;99.90;;;;;;5011064;28;19926;-67
2023/06/17 10:52:55;;;;;;;;;;;27.00;99.90;;;;;;5002390;28;19925;-66
2023/06/17 10:55:21;;;;;;;;;;;27.20;99.90;;;;;;5015438;28;19933;-67
2023/06/17 10:57:48;;;;;;;;;;;27.30;99.90;;;;;;5028828;28;19926;-68
2023/06/17 11:00:15;;;;;;;;;;;27.40;99.90;;;;;;5005030;28;19929;-68
2023/06/17 11:02:42;;;;;;;;;;;27.60;99.90;;;;;;5033916;28;19960;-67
2023/06/17 11:05:09;;;;;;;;;;;27.70;99.90;;;;;;5008466;28;19925;-67
2023/06/17 11:07:37;;;;;;;;;;;27.90;99.90;;;;;;5033106;28;19929;-67
2023/06/17 11:10:05;;;;;;;;;;;28.10;99.90;;;;;;5017627;28;19975;-70
2023/06/17 11:12:34;;;;;;;;;;;28.30;99.90;;;;;;5033616;28;19936;-68
2023/06/17 11:15:03;;;;;;;;;;;28.50;99.90;;;;;;5010195;28;20381;-66
2023/06/17 11:17:30;;;;;;;;;;;28.80;99.90;;;;;;5011696;28;20414;-67
2023/06/17 11:19:57;;;;;;;;;;;28.60;99.90;;;;;;5013351;28;20335;-68
2023/06/17 11:22:23;;;;;;;;;;;28.40;99.90;;;;;;5002479;28;19926;-67
2023/06/17 11:24:51;;;;;;;;;;;28.60;99.90;;;;;;5017137;28;19925;-66
2023/06/17 11:27:18;;;;;;;;;;;28.50;99.90;;;;;;5029181;28;19925;-67
2023/06/17 11:29:47;;;;;;;;;;;28.50;99.90;;;;;;5008288;28;20504;-66
2023/06/17 11:32:14;;;;;;;;;;;28.60;99.90;;;;;;5007616;28;19999;-67
2023/06/17 11:34:41;;;;;;;;;;;29.00;99.90;;;;;;5017823;28;20481;-67
2023/06/17 11:37:10;;;;;;;;;;;29.40;99.90;;;;;;5009408;28;19960;-67
2023/06/17 11:39:37;;;;;;;;;;;29.90;99.90;;;;;;5022303;28;20024;-67
2023/06/17 11:42:06;;;;;;;;;;;30.50;99.90;;;;;;5024864;28;19960;-67
2023/06/17 11:44:33;;;;;;;;;;;31.10;99.90;;;;;;5025195;28;20612;-67
2023/06/17 11:47:03;;;;;;;;;;;31.90;99.90;;;;;;5010967;28;19924;-66
2023/06/17 11:49:30;;;;;;;;;;;32.90;99.90;;;;;;5005450;28;19925;-77
2023/06/17 11:52:00;;;;;;;;;;;33.80;99.90;;;;;;5008868;28;20373;-67
2023/06/17 11:54:27;;;;;;;;;;;34.20;99.90;;;;;;5011960;28;19925;-67
2023/06/17 11:56:54;;;;;;;;;;;34.50;99.80;;;;;;5027023;28;19925;-67
2023/06/17 11:59:23;;;;;;;;;;;35.50;99.50;;;;;;5007666;28;20363;-66
2023/06/17 12:01:51;;;;;;;;;;;36.40;99.10;;;;;;5016017;28;19964;-69
2023/06/17 12:04:18;;;;;;;;;;;35.90;97.60;;;;;;5017519;28;19932;-69
2023/06/17 12:06:45;;;;;;;;;;;35.90;97.40;;;;;;5032872;28;19951;-70
2023/06/17 12:09:12;;;;;;;;;;;36.10;97.00;;;;;;5033568;28;20315;-82
2023/06/17 12:11:39;;;;;;;;;;;36.50;96.80;;;;;;5026580;28;19932;-69
2023/06/17 12:14:06;;;;;;;;;;;37.50;96.10;;;;;;5012411;28;19926;-69
2023/06/17 12:16:35;;;;;;;;;;;37.70;95.70;;;;;;5022079;28;19933;-69
2023/06/17 12:19:03;;;;;;;;;;;37.70;95.60;;;;;;5033116;28;19932;-69
2023/06/17 12:21:30;;;;;;;;;;;36.70;94.90;;;;;;5014840;28;19932;-76
2023/06/17 12:23:57;;;;;;;;;;;37.40;94.70;;;;;;5007674;28;19929;-69
2023/06/17 12:26:24;;;;;;;;;;;37.70;94.10;;;;;;5015390;28;19953;-66
2023/06/17 12:28:51;;;;;;;;;;;38.10;93.10;;;;;;5002494;28;20036;-69
2023/06/17 12:31:18;;;;;;;;;;;38.20;93.40;;;;;;5040852;28;19932;-69
2023/06/17 12:33:47;;;;;;;;;;;38.20;93.40;;;;;;5029277;28;19926;-67
2023/06/17 12:36:14;;;;;;;;;;;38.10;93.40;;;;;;5014928;28;20303;-69
2023/06/17 12:38:41;;;;;;;;;;;36.90;93.20;;;;;;5025100;28;19925;-69
2023/06/17 12:41:08;;;;;;;;;;;36.20;92.90;;;;;;5021759;28;19975;-70
2023/06/17 12:43:35;;;;;;;;;;;35.00;92.40;;;;;;5011296;28;19933;-69
2023/06/17 12:46:02;;;;;;;;;;;35.30;93.30;;;;;;5030962;28;20007;-69
2023/06/17 12:48:29;;;;;;;;;;;36.00;93.10;;;;;;5005876;28;19961;-67
2023/06/17 12:50:58;;;;;;;;;;;36.60;93.00;;;;;;5012210;28;20285;-69
2023/06/17 12:53:26;;;;;;;;;;;36.70;92.50;;;;;;5007154;28;19925;-69
2023/06/17 12:55:55;;;;;;;;;;;36.80;91.10;;;;;;5009860;28;19995;-69
2023/06/17 12:58:22;;;;;;;;;;;37.10;90.60;;;;;;5004783;28;20008;-69
2023/06/17 13:00:48;;;;;;;;;;;36.90;88.90;;;;;;5007893;28;19929;-69
2023/06/17 13:03:15;;;;;;;;;;;36.00;89.50;;;;;;5023478;28;19925;-69
2023/06/17 13:05:42;;;;;;;;;;;35.90;90.10;;;;;;5020528;28;20352;-70
2023/06/17 13:08:10;;;;;;;;;;;36.30;90.00;;;;;;5011887;28;20387;-68
2023/06/17 13:10:37;;;;;;;;;;;36.70;87.50;;;;;;5004528;28;19983;-68
2023/06/17 13:13:03;;;;;;;;;;;36.60;86.20;;;;;;5024057;28;19933;-69
2023/06/17 13:15:30;;;;;;;;;;;36.90;87.90;;;;;;5022998;28;19983;-69
2023/06/17 13:17:57;;;;;;;;;;;37.10;84.90;;;;;;5015061;28;19971;-69
2023/06/17 13:20:24;;;;;;;;;;;37.00;85.10;;;;;;5020881;28;20359;-69
2023/06/17 13:22:51;;;;;;;;;;;36.80;84.70;;;;;;5008379;28;19937;-68
2023/06/17 13:25:19;;;;;;;;;;;36.40;84.80;;;;;;5023153;28;20474;-68
2023/06/17 13:27:46;;;;;;;;;;;37.20;85.10;;;;;;5004849;28;19952;-68
2023/06/17 13:30:12;;;;;;;;;;;37.20;84.30;;;;;;5003772;28;19925;-69
2023/06/17 13:32:39;;;;;;;;;;;37.40;83.70;;;;;;5004025;28;19989;-68
2023/06/17 13:35:07;;;;;;;;;;;37.00;83.60;;;;;;5003868;28;19964;-68
2023/06/17 13:37:34;;;;;;;;;;;37.20;83.70;;;;;;5015447;28;19964;-69
2023/06/17 13:40:00;;;;;;;;;;;37.50;82.50;;;;;;5023547;28;19925;-69
2023/06/17 13:42:31;;;;;;;;;;;37.80;82.40;;;;;;5013119;28;19980;-69
2023/06/17 13:44:59;;;;;;;;;;;36.60;78.80;;;;;;5013573;28;20282;-69
2023/06/17 13:47:25;;;;;;;;;;;37.10;81.50;;;;;;5011567;28;19925;-68
2023/06/17 13:49:52;;;;;;;;;;;37.50;82.30;;;;;;5011382;28;20424;-69
2023/06/17 13:52:19;;;;;;;;;;;37.70;82.90;;;;;;5029000;28;19957;-69
2023/06/17 13:54:46;;;;;;;;;;;37.90;83.50;;;;;;5014357;28;20012;-67
2023/06/17 13:57:13;;;;;;;;;;;38.10;83.70;;;;;;5017815;28;19955;-69
2023/06/17 13:59:41;;;;;;;;;;;37.90;84.00;;;;;;5008754;28;20391;-68
2023/06/17 14:02:07;;;;;;;;;;;37.90;83.60;;;;;;5006424;28;19927;-67
2023/06/17 14:04:34;;;;;;;;;;;38.50;84.20;;;;;;5011078;28;19933;-69
2023/06/17 14:07:02;;;;;;;;;;;37.80;85.00;;;;;;5018963;28;19956;-69
2023/06/17 14:09:29;;;;;;;;;;;37.70;84.90;;;;;;5008909;28;19933;-69
2023/06/17 14:11:56;;;;;;;;;;;37.60;84.70;;;;;;5030231;28;20285;-69
2023/06/17 14:14:22;;;;;;;;;;;36.80;87.00;;;;;;5015055;28;19925;-68
2023/06/17 14:16:51;;;;;;;;;;;36.10;87.10;;;;;;5015023;28;19925;-68
2023/06/17 14:19:17;;;;;;;;;;;36.00;86.90;;;;;;5028465;28;19972;-68